Hastings Natural History Reservation, California Weather observations

Data are for 10 minute period ending at time listed.
 Day   Time   Solar   Ave.   Ave.  Ave.  Vector  Max.   Baro.   Total    
  of    of     Rad.   Air    Rel.  Wind   Wind   Wind  Press.  Precip.   
Year   Day            Temp.  Hum.  Speed  Dir.   Gust                    
2015   (PST)  Kw/m2    F      %     mph   deg.    mph    mb.     in.     
-------------------------------------------------------------------------
  57   15:00   0.58   65.7    44    3.0   318     9.0   950.7    0.00 
  57   15:10   0.59   65.7    43    2.4   274     6.5   950.6    0.00 
  57   15:20   0.56   65.7    42    3.2   325    10.4   950.6    0.00 
  57   15:30   0.55   65.4    41    3.3   278    10.6   950.6    0.00 
  57   15:40   0.54   65.1    42    3.3   275    10.7   950.5    0.00 
  57   15:50   0.46   64.2    42    5.3   247    10.7   950.5    0.00 
  57   16:00   0.43   63.9    42    5.5   250    10.7   950.5    0.00 
  57   16:10   0.41   64.0    44    3.7   255    10.3   950.4    0.00 
  57   16:20   0.41   64.9    45    3.1   275     9.3   950.3    0.00 
  57   16:30   0.34   64.3    47    2.7   292     7.3   950.3    0.00 
  57   16:40   0.35   64.7    47    2.4   284    10.5   950.2    0.00 
  57   16:50   0.30   64.1    48    3.1   262     8.6   950.4    0.00 
  57   17:00   0.27   63.6    50    3.3   272     9.9   950.5    0.00 
  57   17:10   0.30   62.6    52    4.8   252    12.1   950.5    0.00 
  57   17:20   0.23   61.7    56    4.2   253    11.6   950.5    0.00 
  57   17:30   0.19   61.1    58    3.3   321     9.0   950.6    0.00 
  57   17:40   0.11   59.7    58    3.3   259     9.7   950.7    0.00 
  57   17:50   0.15   58.1    60    4.9   246     9.9   950.9    0.00 
  57   18:00   0.05   57.4    63    2.5   288     6.9   951.0    0.00 
  57   18:10   0.07   56.6    65    3.2   252     8.9   951.0    0.00 
  57   18:20   0.07   55.5    69    2.6   308     9.2   950.9    0.00 
  57   18:30   0.06   55.6    69    1.5   338     5.4   950.8    0.00 
  57   18:40   0.04   54.9    71    1.9   257     4.9   950.9    0.00 
  57   18:50   0.01   53.8    73    1.5   255     4.9   950.8    0.00 
  57   19:00   0.00   53.2    75    1.2   259     3.1   950.8    0.00 
  57   19:10   0.00   52.5    76    0.6   252     2.2   951.0    0.00 
  57   19:20   0.00   51.9    79    0.9   266     3.1   951.0    0.00 
  57   19:30   0.00   51.0    80    1.1   245     2.7   951.1    0.00 
  57   19:40   0.00   49.9    83    0.9    34     2.4   951.2    0.00 
  57   19:50   0.00   48.6    85    1.0    54     1.8   951.2    0.00 
  57   20:00   0.00   47.7    85    1.1    46     2.3   951.2    0.00 
  57   20:10   0.00   47.0    87    0.3    45     1.8   951.1    0.00 
  57   20:20   0.00   46.1    86    1.2    52     2.1   951.2    0.00 
  57   20:30   0.00   45.6    86    1.6    56     3.1   951.2    0.00 
  57   20:40   0.00   45.2    86    1.0    52     2.1   951.1    0.00 
  57   20:50   0.00   44.7    86    0.4    68     2.4   951.1    0.00 
  57   21:00   0.00   44.3    87    0.2    77     1.1   951.0    0.00 
  57   21:10   0.00   44.2    87    0.1    67     0.9   951.0    0.00 
  57   21:20   0.00   44.0    87    0.8    53     2.2   951.0    0.00 
  57   21:30   0.00   43.8    87    0.2    54     1.3   951.1    0.00 
  57   21:40   0.00   43.3    88    1.4    51     2.5   951.0    0.00 
  57   21:50   0.00   42.8    88    0.4    58     1.5   950.9    0.00 
  57   22:00   0.00   42.4    89    0.9    52     2.0   950.7    0.00 
  57   22:10   0.00   42.1    90    0.6    19     1.9   950.7    0.00 
  57   22:20   0.00   41.6    90    0.9    62     2.0   950.7    0.00 
  57   22:30   0.00   41.6    91    0.4    37     1.3   950.9    0.00 
  57   22:40   0.00   41.4    91    1.3    49     2.3   950.9    0.00 
  57   22:50   0.00   41.1    92    1.9    43     2.5   950.8    0.00 
  57   23:00   0.00   41.1    92    0.8    56     2.3   950.6    0.00 
  57   23:10   0.00   41.2    92    1.0    44     2.0   950.5    0.00 
  57   23:20   0.00   41.0    92    0.7    62     1.6   950.5    0.00 
  57   23:30   0.00   40.8    92    1.2    49     1.9   950.5    0.00 
  57   23:40   0.00   40.9    93    0.3    41     1.1   950.4    0.00 
  57   23:50   0.00   41.8    93    0.3    59     0.9   950.3    0.00 
  58    0:00   0.00   42.9    92    0.2    81     1.4   950.4    0.00 
  58    0:10   0.00   43.8    91    0.4    90     1.5   950.4    0.00 
  58    0:20   0.00   45.2    92    0.2   217     1.1   950.3    0.00 
  58    0:30   0.00   45.8    92    1.2    39     2.2   950.4    0.00 
  58    0:40   0.00   46.5    93    1.6    28     2.9   950.5    0.00 
  58    0:50   0.00   47.0    94    0.7    34     2.1   950.4    0.00 
  58    1:00   0.00   47.2    94    0.6     4     2.0   950.6    0.00 
  58    1:10   0.00   47.6    96    0.7    29     1.6   950.7    0.00 
  58    1:20   0.00   47.7    96    0.6    40     2.1   950.6    0.00 
  58    1:30   0.00   48.1    97    0.7     2     2.1   950.7    0.00 
  58    1:40   0.00   48.2    96    0.8     2     2.3   950.5    0.00 
  58    1:50   0.00   48.2    96    1.2   357     2.9   950.4    0.00 
  58    2:00   0.00   48.4    96    1.8    12     3.8   950.3    0.00 
  58    2:10   0.00   48.5    95    1.2    14     2.7   950.0    0.00 
  58    2:20   0.00   48.6    95    1.6     9     4.8   949.9    0.00 
  58    2:30   0.00   48.6    95    1.2   359     2.9   950.0    0.00 
  58    2:40   0.00   48.6    95    1.8     0     3.9   949.9    0.00 
  58    2:50   0.00   48.7    96    1.9     7     4.0   949.9    0.00 
  58    3:00   0.00   48.9    96    1.4     5     3.9   949.9    0.00 
  58    3:10   0.00   49.0    96    1.5     2     3.7   949.8    0.00 
  58    3:20   0.00   48.9    96    0.8   250     2.6   949.7    0.00 
  58    3:30   0.00   48.6    96    1.7   255     4.8   949.5    0.00 
  58    3:40   0.00   48.2    97    2.5   247     5.1   949.4    0.00 
  58    3:50   0.00   47.9    99    3.1   253     6.7   949.3    0.00 
  58    4:00   0.00   47.8   100    1.4   255     5.0   949.2    0.00 
  58    4:10   0.00   47.8   100    1.5   249     3.0   949.0    0.00 
  58    4:20   0.00   47.8   100    1.1   253     3.7   948.7    0.00 
  58    4:30   0.00   47.9   100    1.8   246     4.6   948.6    0.00 
  58    4:40   0.00   47.9   100    1.3   263     3.9   948.6    0.00 
  58    4:50   0.00   48.1   100    1.0   323     3.0   948.6    0.00 
  58    5:00   0.00   48.1   100    3.4   267     8.2   948.7    0.00 
  58    5:10   0.00   47.9   100    1.8   267     5.6   948.8    0.00 
  58    5:20   0.00   47.9   100    1.5   269     7.5   948.7    0.00 
  58    5:30   0.00   47.9   100    1.9   256     5.8   948.7    0.00 
  58    5:40   0.00   47.7   100    2.4   261     6.2   948.8    0.00 
  58    5:50   0.00   47.7   100    2.5   254     6.1   948.8    0.00 
  58    6:00   0.00   47.7   100    1.0   310     4.1   948.7    0.00 
  58    6:10   0.00   47.7   100    1.7   280     6.1   948.7    0.00 
  58    6:20   0.00   47.7   100    2.0   259     5.5   948.6    0.01 
  58    6:30   0.00   47.7   100    1.9   255     6.5   948.6    0.00 
  58    6:40   0.00   47.7   100    1.7   279     6.7   948.7    0.00 
  58    6:50   0.00   47.7   100    0.9   305     3.7   948.7    0.00 
  58    7:00   0.00   47.7   100    1.6   265     5.7   948.7    0.00 
  58    7:10   0.00   47.7   100    0.8   268     3.6   948.7    0.00 
  58    7:20   0.00   47.7   100    0.9   263     4.2   948.7    0.00 
  58    7:30   0.00   47.7   100    1.2   271     4.5   948.6    0.00 
  58    7:40   0.00   47.7   100    1.5   295     6.1   948.7    0.00 
  58    7:50   0.00   47.6   100    2.9   246     7.7   949.0    0.00 
  58    8:00   0.00   47.6   100    3.0   250     8.7   949.1    0.00 
  58    8:10   0.00   47.5   100    2.4   280     7.5   949.2    0.01 
  58    8:20   0.00   47.5   100    1.4   294     6.2   949.1    0.00 
  58    8:30   0.01   47.5   100    1.6   269     4.8   949.1    0.00 
  58    8:40   0.01   47.5   100    2.1   256     6.3   949.2    0.00 
  58    8:50   0.02   47.5   100    1.5   281     5.6   949.0    0.00 
  58    9:00   0.02   47.7   100    1.1   283     5.8   949.0    0.00 
  58    9:10   0.04   47.7   100    1.5   265     4.2   949.1    0.00 
  58    9:20   0.04   47.8   100    1.5   259     5.0   949.3    0.00 
  58    9:30   0.04   48.1   100    1.1   281     3.9   949.4    0.00 
  58    9:40   0.06   48.3   100    1.5   271     5.1   949.3    0.00 
  58    9:50   0.06   48.4   100    1.1   285     3.4   949.3    0.00 
  58   10:00   0.08   48.6   100    1.3   324     4.7   949.3    0.00 
  58   10:10   0.13   48.9   100    2.2   257     7.9   949.3    0.00 
  58   10:20   0.09   49.5    99    1.2   275     4.9   949.3    0.00 
  58   10:30   0.09   49.1    98    1.3   295     4.7   949.3    0.00 
  58   10:40   0.11   49.4    96    2.6   263     7.1   949.2    0.00 
  58   10:50   0.14   49.8    91    2.5   252     7.7   949.2    0.00 
  58   11:00   0.14   50.1    89    3.3   249     7.5   949.1    0.00 
  58   11:10   0.22   50.9    89    2.5   262     9.5   949.0    0.00 
  58   11:20   0.16   51.6    87    1.8   303     7.8   949.1    0.00 
  58   11:30   0.17   51.9    85    1.8   270     6.4   949.0    0.00 
  58   11:40   0.23   52.0    85    2.9   277     7.6   948.9    0.00 
  58   11:50   0.17   52.6    83    2.4   328     7.9   948.8    0.00 
  58   12:00   0.11   52.2    83    2.5   348    11.0   948.7    0.00 
  58   12:10   0.14   52.0    83    3.4   262     9.1   948.7    0.00 
  58   12:20   0.18   51.8    85    3.2   265     9.0   948.8    0.00 
  58   12:30   0.19   51.8    85    2.7   294     9.9   948.8    0.00 
  58   12:40   0.20   52.1    85    3.8   280     8.3   948.7    0.00 
  58   12:50   0.12   51.4    88    3.0   307     9.2   948.8    0.01 
  58   13:00   0.20   50.4    93    3.7   282    11.2   948.8    0.00 
  58   13:10   0.33   50.1    95    4.2   250    12.6   948.7    0.00 
  58   13:20   0.33   50.7    93    3.2   277     9.3   948.5    0.00 
  58   13:30   0.25   51.2    90    3.5   284     9.8   948.3    0.00 
  58   13:40   0.34   51.8    87    2.8   332    10.5   948.0    0.00 
  58   13:50   0.22   52.1    85    2.9   323    11.5   947.7    0.00 
  58   14:00   0.16   51.5    84    3.9   254    10.0   947.5    0.00 
  58   14:10   0.16   51.5    84    2.3   258     7.2   947.4    0.00 
  58   14:20   0.14   51.5    82    3.1   247    10.4   947.4    0.00 
  58   14:30   0.16   51.6    81    3.4   266    11.6   947.3    0.00 
  58   14:40   0.30   51.5    80    3.2   288     9.2   947.1    0.00 
  58   14:50   0.37   52.8    76    5.2   252    14.3   946.9    0.00 

Return to Hastings Natural History Reservation graphs page.


Western Regional Climate Center,wrcc@dri.edu